Time;durP1;ratioP1;P1;durP2;ratioP2;P2;SDS_P1;SDS_P2;PMS_P1;PMS_P2;Temp;Humidity;BMP_temperature;BMP_pressure;BME280_temperature;BME280_humidity;BME280_pressure;Samples;Min_cycle;Max_cycle;Signal;HPM_P1;HPM_P2
2023/03/21 00:00:56;;;;;;;13.17;7.93;;;;;;;9.39;nan;-24079.34;5043284;28;20381;-73
2023/03/21 00:03:22;;;;;;;19.80;9.40;;;;;;;9.18;nan;-24073.41;5010655;28;20180;-75
2023/03/21 00:05:50;;;;;;;17.93;8.83;;;;;;;8.98;nan;-24067.75;5042686;28;20238;-74
2023/03/21 00:08:17;;;;;;;15.53;8.40;;;;;;;9.24;nan;-24075.25;5010958;28;20168;-71
2023/03/21 00:10:43;;;;;;;16.37;9.13;;;;;;;9.31;nan;-24077.09;5010862;28;20644;-75
2023/03/21 00:13:13;;;;;;;13.77;8.07;;;;;;;9.01;nan;-24068.75;5042479;28;20176;-72
2023/03/21 00:15:48;;;;;;;14.70;8.03;;;;;;;9.34;nan;-24077.94;5009523;28;20176;-77
2023/03/21 00:18:15;;;;;;;15.53;8.20;;;;;;;9.32;nan;-24077.38;5010656;28;20186;-76
2023/03/21 00:20:46;;;;;;;19.43;9.03;;;;;;;9.06;nan;-24070.16;5010992;28;20180;-73
2023/03/21 00:23:11;;;;;;;19.17;8.63;;;;;;;9.23;nan;-24074.97;5011585;28;20264;-75
2023/03/21 00:25:37;;;;;;;17.77;8.10;;;;;;;9.38;nan;-24079.06;5011424;28;20643;-75
2023/03/21 00:28:02;;;;;;;18.37;8.87;;;;;;;9.00;nan;-24068.34;5009755;28;20177;-71
2023/03/21 00:30:28;;;;;;;13.07;7.57;;;;;;;9.10;nan;-24071.16;5010865;28;20172;-71
2023/03/21 00:32:53;;;;;;;16.00;7.50;;;;;;;9.28;nan;-24076.25;5011148;28;20234;-71
2023/03/21 00:35:19;;;;;;;19.23;8.03;;;;;;;9.13;nan;-24072.00;5011308;28;20204;-72
2023/03/21 00:37:45;;;;;;;14.87;8.20;;;;;;;8.83;nan;-24063.66;5026448;28;20501;-77
2023/03/21 00:40:11;;;;;;;15.03;9.07;;;;;;;8.56;nan;-24056.16;5014388;28;20176;-77
2023/03/21 00:42:37;;;;;;;25.60;8.17;;;;;;;9.09;nan;-24071.03;5014593;28;20172;-72
2023/03/21 00:45:04;;;;;;;19.93;8.77;;;;;;;9.29;nan;-24076.53;5029635;28;20183;-75
2023/03/21 00:47:29;;;;;;;13.17;7.07;;;;;;;9.21;nan;-24074.41;5015256;28;20172;-77
2023/03/21 00:49:54;;;;;;;18.10;8.50;;;;;;;8.91;nan;-24065.78;5014239;28;20241;-75
2023/03/21 00:52:20;;;;;;;16.33;8.20;;;;;;;9.04;nan;-24069.47;5014693;28;20168;-73
2023/03/21 00:54:46;;;;;;;17.27;8.77;;;;;;;9.21;nan;-24074.25;5014128;28;20488;-76
2023/03/21 00:57:11;;;;;;;13.93;7.70;;;;;;;9.26;nan;-24075.69;5014153;28;20216;-72
2023/03/21 00:59:36;;;;;;;11.53;7.43;;;;;;;9.21;nan;-24074.25;5029246;28;20176;-74
2023/03/21 01:02:06;;;;;;;15.47;9.23;;;;;;;9.16;nan;-24073.00;5031920;28;20253;-72
2023/03/21 01:04:33;;;;;;;16.10;7.93;;;;;;;9.13;nan;-24072.16;5014184;28;20172;-76
2023/03/21 01:06:59;;;;;;;15.17;8.33;;;;;;;8.83;nan;-24063.81;5012875;28;20207;-73
2023/03/21 01:09:25;;;;;;;18.50;8.73;;;;;;;8.80;nan;-24062.94;5014190;28;20187;-71
2023/03/21 01:11:51;;;;;;;13.40;7.50;;;;;;;9.00;nan;-24068.34;5014014;28;20184;-72
2023/03/21 01:14:18;;;;;;;18.77;8.50;;;;;;;8.78;nan;-24062.38;5012291;28;20200;-72
2023/03/21 01:16:43;;;;;;;16.53;8.73;;;;;;;8.63;nan;-24058.16;5012450;28;20180;-76
2023/03/21 01:19:13;;;;;;;13.50;7.27;;;;;;;8.66;nan;-24059.00;5014362;28;20179;-75
2023/03/21 01:21:39;;;;;;;16.20;8.10;;;;;;;8.82;nan;-24063.38;5013978;28;20665;-72
2023/03/21 01:24:05;;;;;;;15.97;8.43;;;;;;;8.91;nan;-24065.78;5012733;28;20180;-77
2023/03/21 01:26:31;;;;;;;17.90;9.10;;;;;;;8.91;nan;-24065.94;5013477;28;20219;-70
2023/03/21 01:28:56;;;;;;;16.27;8.93;;;;;;;8.71;nan;-24060.25;5014105;28;20203;-71
2023/03/21 01:31:22;;;;;;;16.07;8.43;;;;;;;8.70;nan;-24060.13;5045512;28;20263;-72
2023/03/21 01:33:47;;;;;;;17.57;9.13;;;;;;;8.50;nan;-24054.47;5013455;28;20196;-74
2023/03/21 01:36:16;;;;;;;19.70;9.80;;;;;;;8.70;nan;-24060.13;5028913;28;20172;-77
2023/03/21 01:38:42;;;;;;;21.03;8.77;;;;;;;9.02;nan;-24068.91;5029132;28;20331;-75
2023/03/21 01:41:30;;;;;;;22.83;9.47;;;;;;;8.70;nan;-24060.13;5013193;28;20259;-75
2023/03/21 01:43:55;;;;;;;19.67;9.87;;;;;;;8.66;nan;-24059.00;5006675;28;20200;-72
2023/03/21 01:46:22;;;;;;;16.90;9.10;;;;;;;8.79;nan;-24062.66;5013825;28;20180;-76
2023/03/21 01:49:01;;;;;;;17.83;9.57;;;;;;;8.61;nan;-24057.44;5013151;28;20655;-73
2023/03/21 01:51:29;;;;;;;18.83;9.07;;;;;;;8.38;nan;-24051.22;5012937;28;20545;-72
2023/03/21 01:53:55;;;;;;;20.93;10.00;;;;;;;8.20;nan;-24045.97;5012756;28;20211;-73
2023/03/21 01:56:28;;;;;;;15.40;8.17;;;;;;;8.74;nan;-24061.25;5013523;28;20515;-76
2023/03/21 01:59:01;;;;;;;18.80;9.20;;;;;;;8.69;nan;-24059.84;5028388;28;20611;-72
2023/03/21 02:01:27;;;;;;;19.40;8.67;;;;;;;8.78;nan;-24062.25;5012960;28;20230;-72
2023/03/21 02:03:53;;;;;;;15.77;8.80;;;;;;;8.79;nan;-24062.53;5015832;28;20180;-76
2023/03/21 02:06:34;;;;;;;19.17;9.17;;;;;;;8.72;nan;-24060.69;5012988;28;20195;-73
2023/03/21 02:09:07;;;;;;;19.67;9.67;;;;;;;8.70;nan;-24059.97;5013031;28;20176;-73
2023/03/21 02:11:34;;;;;;;20.00;8.57;;;;;;;8.65;nan;-24058.72;5012992;28;20195;-73
2023/03/21 02:14:00;;;;;;;18.13;9.93;;;;;;;8.75;nan;-24061.53;5012785;28;20227;-78
2023/03/21 02:16:52;;;;;;;14.37;7.83;;;;;;;8.82;nan;-24063.53;5013035;28;20666;-74
2023/03/21 02:19:33;;;;;;;25.47;10.10;;;;;;;8.24;nan;-24047.25;5012813;28;20587;-72
2023/03/21 02:22:10;;;;;;;16.17;7.60;;;;;;;8.93;nan;-24066.34;5012775;28;20175;-74
2023/03/21 02:24:39;;;;;;;14.77;8.00;;;;;;;8.73;nan;-24060.97;5006246;28;20196;-71
2023/03/21 02:27:17;;;;;;;16.23;8.43;;;;;;;9.23;nan;-24074.84;5010871;28;20188;-76
2023/03/21 02:30:18;;;;;;;18.80;8.57;;;;;;;9.20;nan;-24074.00;5012607;28;20184;-70
2023/03/21 02:33:20;;;;;;;18.10;8.73;;;;;;;9.21;nan;-24074.25;5011741;28;20370;-72
2023/03/21 02:36:04;;;;;;;15.67;7.60;;;;;;;8.88;nan;-24064.94;5012786;28;20190;-74
2023/03/21 02:38:39;;;;;;;21.93;8.90;;;;;;;8.63;nan;-24058.16;5012703;28;20164;-75
2023/03/21 02:41:35;;;;;;;15.33;8.07;;;;;;;8.95;nan;-24066.91;5012547;28;20270;-73
2023/03/21 02:44:19;;;;;;;16.07;7.63;;;;;;;8.85;nan;-24064.22;5012506;28;20658;-75
2023/03/21 02:46:57;;;;;;;15.63;7.57;;;;;;;9.04;nan;-24069.47;5012289;28;20176;-70
2023/03/21 02:49:41;;;;;;;22.70;9.27;;;;;;;8.62;nan;-24057.88;5027646;28;20609;-76
2023/03/21 02:52:11;;;;;;;19.63;8.77;;;;;;;8.84;nan;-24063.94;5011801;28;20546;-73
2023/03/21 02:54:37;;;;;;;16.13;8.60;;;;;;;8.51;nan;-24054.59;5012017;28;20525;-72
2023/03/21 02:57:04;;;;;;;21.37;8.53;;;;;;;8.56;nan;-24056.16;5012066;28;20178;-75
2023/03/21 02:59:32;;;;;;;19.73;8.80;;;;;;;8.88;nan;-24065.22;5012058;28;20678;-74
2023/03/21 03:01:58;;;;;;;15.57;7.57;;;;;;;8.58;nan;-24056.72;5011890;28;20263;-73
2023/03/21 03:04:26;;;;;;;17.53;9.10;;;;;;;8.81;nan;-24063.25;5013524;28;20186;-70
2023/03/21 03:06:59;;;;;;;25.13;9.30;;;;;;;8.76;nan;-24061.81;5010508;28;20180;-70
2023/03/21 03:09:29;;;;;;;18.73;9.33;;;;;;;8.75;nan;-24061.41;5011723;28;20196;-77
2023/03/21 03:12:08;;;;;;;11.33;6.77;;;;;;;8.65;nan;-24058.72;5011963;28;20168;-73
2023/03/21 03:15:30;;;;;;;22.43;7.90;;;;;;;8.65;nan;-24058.56;5011707;28;20253;-77
2023/03/21 03:18:11;;;;;;;17.13;7.37;;;;;;;8.23;nan;-24046.97;5010257;28;20188;-74
2023/03/21 03:20:49;;;;;;;12.20;7.43;;;;;;;8.12;nan;-24043.69;5010523;28;20247;-74
2023/03/21 03:23:20;;;;;;;15.30;7.60;;;;;;;8.29;nan;-24048.50;5012110;28;20298;-72
2023/03/21 03:25:57;;;;;;;18.13;9.13;;;;;;;8.10;nan;-24043.13;5012403;28;20170;-74
2023/03/21 03:28:29;;;;;;;18.10;8.57;;;;;;;8.09;nan;-24042.84;5011814;28;20246;-75
2023/03/21 03:30:56;;;;;;;17.70;8.93;;;;;;;7.92;nan;-24038.19;5010608;28;20536;-72
2023/03/21 03:33:24;;;;;;;14.50;7.70;;;;;;;8.09;nan;-24042.84;5010409;28;20180;-72
2023/03/21 03:35:52;;;;;;;13.13;7.23;;;;;;;7.88;nan;-24037.19;5011272;28;20552;-70
2023/03/21 03:38:20;;;;;;;17.20;7.23;;;;;;;7.52;nan;-24026.97;5011643;28;20164;-74
2023/03/21 03:40:54;;;;;;;14.97;6.80;;;;;;;7.95;nan;-24039.03;5011982;28;20176;-76
2023/03/21 03:43:25;;;;;;;18.33;7.03;;;;;;;7.61;nan;-24029.53;5011620;28;20193;-74
2023/03/21 03:46:00;;;;;;;10.77;6.00;;;;;;;7.70;nan;-24032.09;5011530;28;20235;-76
2023/03/21 03:49:00;;;;;;;11.73;6.80;;;;;;;7.61;nan;-24029.53;5011295;28;20172;-74
2023/03/21 03:51:33;;;;;;;17.10;7.23;;;;;;;7.34;nan;-24021.88;5011527;28;20663;-78
2023/03/21 03:54:06;;;;;;;11.90;6.73;;;;;;;7.20;nan;-24018.06;5010170;28;20224;-72
2023/03/21 03:56:32;;;;;;;13.07;7.30;;;;;;;6.96;nan;-24011.38;5011268;28;20156;-76
2023/03/21 03:58:58;;;;;;;13.23;7.83;;;;;;;7.20;nan;-24017.91;5011441;28;20579;-72
2023/03/21 04:01:23;;;;;;;14.30;7.27;;;;;;;7.09;nan;-24014.94;5011588;28;20191;-72
2023/03/21 04:03:49;;;;;;;13.23;6.53;;;;;;;6.75;nan;-24005.44;5011356;28;20183;-73
2023/03/21 04:06:15;;;;;;;12.63;6.30;;;;;;;6.71;nan;-24004.28;5011795;28;20678;-70
2023/03/21 04:08:41;;;;;;;16.27;7.33;;;;;;;7.05;nan;-24013.81;5011977;28;20710;-75
2023/03/21 04:11:07;;;;;;;14.10;6.53;;;;;;;6.77;nan;-24006.00;5011078;28;20180;-73
2023/03/21 04:13:33;;;;;;;23.13;8.03;;;;;;;6.98;nan;-24011.94;5012827;28;20184;-72
2023/03/21 04:15:59;;;;;;;14.07;6.40;;;;;;;6.75;nan;-24005.44;5013601;28;20651;-74
2023/03/21 04:18:25;;;;;;;12.10;7.10;;;;;;;6.59;nan;-24001.03;5015220;28;20177;-77
2023/03/21 04:20:50;;;;;;;9.13;5.63;;;;;;;6.72;nan;-24004.56;5005144;28;20176;-71
2023/03/21 04:23:18;;;;;;;12.57;6.17;;;;;;;6.77;nan;-24005.84;5001115;28;20181;-81
2023/03/21 04:25:44;;;;;;;11.07;6.90;;;;;;;7.03;nan;-24013.22;5000744;28;20184;-74
2023/03/21 04:28:10;;;;;;;9.77;6.07;;;;;;;6.85;nan;-24008.25;5002222;28;20192;-73
2023/03/21 04:30:35;;;;;;;12.47;7.07;;;;;;;7.02;nan;-24012.94;5005918;28;20189;-74
2023/03/21 04:33:01;;;;;;;12.60;6.13;;;;;;;6.80;nan;-24006.72;5001227;28;20267;-74
2023/03/21 04:35:27;;;;;;;13.13;6.10;;;;;;;6.60;nan;-24001.19;4999045;28;20212;-79
2023/03/21 04:37:53;;;;;;;17.83;7.33;;;;;;;6.68;nan;-24003.31;4998971;28;20219;-74
2023/03/21 04:40:18;;;;;;;14.30;7.50;;;;;;;6.61;nan;-24001.59;5000620;28;20191;-73
2023/03/21 04:42:45;;;;;;;15.27;6.93;;;;;;;6.92;nan;-24010.13;5015641;28;20195;-70
2023/03/21 04:45:11;;;;;;;12.90;7.07;;;;;;;7.01;nan;-24012.66;5015992;28;20257;-75
2023/03/21 04:47:37;;;;;;;17.57;7.80;;;;;;;6.97;nan;-24011.66;5000591;28;20207;-75
2023/03/21 04:50:03;;;;;;;13.90;6.53;;;;;;;6.92;nan;-24010.25;5015702;28;20200;-76
2023/03/21 04:52:28;;;;;;;16.63;6.90;;;;;;;7.12;nan;-24015.66;4999352;28;20628;-72
2023/03/21 04:54:54;;;;;;;13.83;7.13;;;;;;;7.12;nan;-24015.66;5012948;28;20213;-74
2023/03/21 04:57:19;;;;;;;10.77;6.03;;;;;;;7.47;nan;-24025.56;5000286;28;20599;-76
2023/03/21 04:59:45;;;;;;;13.03;6.03;;;;;;;7.60;nan;-24029.09;4999235;28;20211;-71
2023/03/21 05:02:11;;;;;;;14.30;6.73;;;;;;;7.26;nan;-24019.63;4999308;28;20869;-74
2023/03/21 05:04:37;;;;;;;12.63;6.17;;;;;;;7.48;nan;-24026.00;5014308;28;20193;-74
2023/03/21 05:07:03;;;;;;;12.10;6.67;;;;;;;7.43;nan;-24024.56;5000658;28;20243;-76
2023/03/21 05:09:28;;;;;;;14.47;7.23;;;;;;;7.34;nan;-24021.88;5000300;28;20664;-80
2023/03/21 05:11:54;;;;;;;17.00;6.90;;;;;;;7.75;nan;-24033.50;4999086;28;20177;-72
2023/03/21 05:14:23;;;;;;;16.30;7.90;;;;;;;7.77;nan;-24033.94;5030088;28;20631;-73
2023/03/21 05:16:54;;;;;;;15.70;7.27;;;;;;;8.10;nan;-24043.28;4999097;28;20675;-71
2023/03/21 05:19:22;;;;;;;14.83;6.23;;;;;;;8.51;nan;-24054.75;4999452;28;20677;-73
2023/03/21 05:21:48;;;;;;;19.13;7.20;;;;;;;7.99;nan;-24040.31;5006333;28;20203;-72
2023/03/21 05:24:17;;;;;;;17.80;7.73;;;;;;;8.74;nan;-24061.25;5012321;28;20672;-75
2023/03/21 05:26:49;;;;;;;19.53;7.73;;;;;;;8.66;nan;-24058.84;5009062;28;20189;-74
2023/03/21 05:29:16;;;;;;;18.07;8.47;;;;;;;9.29;nan;-24076.53;5013582;28;20262;-75
2023/03/21 05:31:43;;;;;;;16.27;7.93;;;;;;;9.37;nan;-24078.78;5011965;28;20192;-72
2023/03/21 05:34:08;;;;;;;14.87;7.23;;;;;;;9.48;nan;-24081.91;5011943;28;20200;-76
2023/03/21 05:36:34;;;;;;;10.93;6.80;;;;;;;9.81;nan;-24091.09;5013083;28;20186;-75
2023/03/21 05:39:00;;;;;;;13.83;7.67;;;;;;;9.84;nan;-24091.94;5013610;28;20172;-74
2023/03/21 05:41:26;;;;;;;12.13;7.37;;;;;;;10.17;nan;-24101.13;5012269;28;20238;-73
2023/03/21 05:43:51;;;;;;;16.67;7.63;;;;;;;10.08;nan;-24098.72;5013618;28;20210;-75
2023/03/21 05:46:17;;;;;;;15.63;8.45;;;;;;;10.63;nan;-24113.97;5011355;28;20255;-75
2023/03/21 05:48:42;;;;;;;12.05;6.90;;;;;;;10.71;nan;-24116.06;5006770;28;20188;-73
2023/03/21 05:51:08;;;;;;;15.57;7.72;;;;;;;10.67;nan;-24115.09;5027621;28;20376;-76
2023/03/21 05:53:33;;;;;;;17.63;8.75;;;;;;;10.94;nan;-24122.56;5012774;28;20173;-76
2023/03/21 05:55:59;;;;;;;12.27;7.13;;;;;;;11.04;nan;-24125.38;5012520;28;20570;-73
2023/03/21 05:58:24;;;;;;;15.55;8.90;;;;;;;10.99;nan;-24124.13;5012531;28;20230;-75
2023/03/21 06:00:50;;;;;;;20.20;7.25;;;;;;;11.26;nan;-24131.59;5044349;28;20187;-74
2023/03/21 06:03:15;;;;;;;19.35;7.53;;;;;;;11.07;nan;-24126.22;5012702;28;20179;-73
2023/03/21 06:05:41;;;;;;;17.30;8.80;;;;;;;10.91;nan;-24121.72;5013815;28;20179;-72
2023/03/21 06:08:06;;;;;;;19.77;9.20;;;;;;;10.77;nan;-24117.78;5014125;28;20556;-73
2023/03/21 06:10:32;;;;;;;22.15;9.68;;;;;;;10.85;nan;-24120.03;5044173;28;20172;-75
2023/03/21 06:12:57;;;;;;;17.80;9.75;;;;;;;10.61;nan;-24113.53;5012634;28;20608;-75
2023/03/21 06:15:23;;;;;;;21.48;9.65;;;;;;;10.94;nan;-24122.56;5011874;28;20203;-73
2023/03/21 06:17:49;;;;;;;28.27;10.15;;;;;;;11.21;nan;-24130.03;5012073;28;20176;-74
2023/03/21 06:20:14;;;;;;;21.13;9.50;;;;;;;11.24;nan;-24130.88;5012121;28;20184;-74
2023/03/21 06:22:40;;;;;;;20.85;11.55;;;;;;;10.82;nan;-24119.19;5012215;28;20265;-73
2023/03/21 06:25:06;;;;;;;34.90;11.88;;;;;;;10.81;nan;-24118.91;5027653;28;20176;-76
2023/03/21 06:27:32;;;;;;;27.85;12.82;;;;;;;11.05;nan;-24125.66;5012462;28;20161;-74
2023/03/21 06:29:58;;;;;;;23.70;11.18;;;;;;;11.15;nan;-24128.47;5011784;28;20606;-72
2023/03/21 06:32:24;;;;;;;18.60;9.20;;;;;;;11.17;nan;-24129.03;5012225;28;20264;-76
2023/03/21 06:34:50;;;;;;;15.70;7.32;;;;;;;11.32;nan;-24133.13;5012033;28;20279;-76
2023/03/21 06:37:16;;;;;;;18.10;8.77;;;;;;;11.63;nan;-24141.72;5043044;28;20290;-76
2023/03/21 06:39:41;;;;;;;13.68;7.25;;;;;;;11.27;nan;-24131.72;5012237;28;20203;-75
2023/03/21 06:42:07;;;;;;;13.93;7.25;;;;;;;11.13;nan;-24127.78;5011157;28;20179;-74
2023/03/21 06:44:32;;;;;;;17.85;6.97;;;;;;;11.62;nan;-24141.44;5012568;28;20183;-74
2023/03/21 06:46:57;;;;;;;14.18;6.80;;;;;;;11.94;nan;-24150.59;5043752;28;20698;-76
2023/03/21 06:49:23;;;;;;;15.77;6.97;;;;;;;11.64;nan;-24142.00;5043671;28;20180;-74
2023/03/21 06:51:49;;;;;;;16.10;6.97;;;;;;;11.71;nan;-24144.13;5043432;28;20258;-77
2023/03/21 06:54:16;;;;;;;13.18;7.25;;;;;;;12.11;nan;-24155.13;5043494;28;20281;-72
2023/03/21 06:56:42;;;;;;;17.80;6.97;;;;;;;12.28;nan;-24160.03;5043520;28;20183;-77
2023/03/21 06:59:07;;;;;;;20.80;7.75;;;;;;;12.52;nan;-24166.66;5010618;28;20266;-76
2023/03/21 07:01:33;;;;;;;15.50;7.30;;;;;;;12.76;nan;-24173.25;5015295;28;20176;-74
2023/03/21 07:03:59;;;;;;;14.60;7.50;;;;;;;12.84;nan;-24175.50;5020038;28;20218;-72
2023/03/21 07:06:26;;;;;;;15.75;7.47;;;;;;;13.19;nan;-24185.22;5045176;28;20262;-75
2023/03/21 07:08:54;;;;;;;14.73;6.85;;;;;;;13.28;nan;-24187.75;5018773;28;20570;-72
2023/03/21 07:11:21;;;;;;;16.88;7.53;;;;;;;13.19;nan;-24185.22;5012220;28;20179;-73
2023/03/21 07:13:47;;;;;;;14.48;6.63;;;;;;;13.22;nan;-24186.06;5011581;28;20333;-76
2023/03/21 07:16:14;;;;;;;11.70;7.10;;;;;;;13.38;nan;-24190.41;5012210;28;20208;-76
2023/03/21 07:18:41;;;;;;;22.00;7.70;;;;;;;13.61;nan;-24197.00;5011927;28;20176;-73
2023/03/21 07:21:07;;;;;;;21.13;6.95;;;;;;;13.58;nan;-24196.16;5010689;28;20563;-79
2023/03/21 07:23:33;;;;;;;12.52;7.20;;;;;;;13.79;nan;-24201.78;5012369;28;20187;-76
2023/03/21 07:26:00;;;;;;;16.38;7.70;;;;;;;13.56;nan;-24195.59;5012101;28;20157;-75
2023/03/21 07:28:26;;;;;;;16.27;8.35;;;;;;;13.86;nan;-24203.75;5012000;28;20176;-77
2023/03/21 07:30:54;;;;;;;20.02;7.70;;;;;;;13.98;nan;-24207.25;5012776;28;20237;-75
2023/03/21 07:33:21;;;;;;;16.30;7.75;;;;;;;14.04;nan;-24208.81;5010054;28;20183;-73
2023/03/21 07:35:48;;;;;;;17.60;8.13;;;;;;;14.37;nan;-24217.94;5010709;28;20215;-76
2023/03/21 07:38:15;;;;;;;23.25;7.88;;;;;;;14.32;nan;-24216.50;5012396;28;20210;-74
2023/03/21 07:40:41;;;;;;;15.07;7.53;;;;;;;14.70;nan;-24227.19;5012222;28;20171;-79
2023/03/21 07:43:06;;;;;;;12.77;7.43;;;;;;;14.62;nan;-24224.94;5011991;28;20183;-81
2023/03/21 07:45:32;;;;;;;19.08;7.75;;;;;;;14.44;nan;-24220.03;5011380;28;20180;-75
2023/03/21 07:47:57;;;;;;;17.50;7.18;;;;;;;15.06;nan;-24237.00;5012218;28;20172;-76
2023/03/21 07:50:22;;;;;;;20.35;7.03;;;;;;;15.14;nan;-24239.38;5047431;28;20206;-75
2023/03/21 07:52:48;;;;;;;14.70;7.60;;;;;;;15.15;nan;-24239.50;5015725;28;20200;-74
2023/03/21 07:55:16;;;;;;;16.63;7.53;;;;;;;15.47;nan;-24248.47;5014952;28;20204;-74
2023/03/21 07:57:41;;;;;;;15.48;7.53;;;;;;;14.48;nan;-24221.00;5016232;28;20242;-77
2023/03/21 08:00:07;;;;;;;16.85;7.68;;;;;;;15.04;nan;-24236.56;5014849;28;20631;-75
2023/03/21 08:02:33;;;;;;;19.73;8.65;;;;;;;14.86;nan;-24231.66;5016510;28;20176;-76
2023/03/21 08:04:58;;;;;;;12.38;7.20;;;;;;;15.04;nan;-24236.72;5017177;28;20192;-71
2023/03/21 08:07:25;;;;;;;16.48;6.38;;;;;;;15.86;nan;-24259.38;5016257;28;20172;-76
2023/03/21 08:09:51;;;;;;;17.02;7.78;;;;;;;15.96;nan;-24261.91;5015108;28;20195;-73
2023/03/21 08:12:16;;;;;;;13.68;6.82;;;;;;;15.45;nan;-24248.06;5016409;28;20628;-75
2023/03/21 08:14:42;;;;;;;14.80;7.63;;;;;;;15.65;nan;-24253.50;5015498;28;20192;-76
2023/03/21 08:17:08;;;;;;;20.98;8.13;;;;;;;15.25;nan;-24242.44;5015405;28;20267;-74
2023/03/21 08:19:34;;;;;;;13.13;7.18;;;;;;;15.44;nan;-24247.78;5015474;28;20169;-75
2023/03/21 08:22:00;;;;;;;14.63;7.07;;;;;;;15.13;nan;-24239.09;5015105;28;20188;-71
2023/03/21 08:24:27;;;;;;;11.75;6.30;;;;;;;15.29;nan;-24243.44;5014657;28;20615;-73
2023/03/21 08:26:52;;;;;;;14.63;7.00;;;;;;;15.37;nan;-24245.81;5014832;28;20222;-74
2023/03/21 08:29:17;;;;;;;15.43;7.28;;;;;;;15.67;nan;-24254.06;5014876;28;20585;-78
2023/03/21 08:31:43;;;;;;;14.95;7.18;;;;;;;15.63;nan;-24252.94;5013001;28;20664;-74
2023/03/21 08:34:08;;;;;;;12.35;6.65;;;;;;;15.95;nan;-24261.63;5007325;28;20723;-77
2023/03/21 08:36:37;;;;;;;15.02;7.25;;;;;;;16.41;nan;-24274.34;5012514;28;20175;-78
2023/03/21 08:39:04;;;;;;;16.23;7.22;;;;;;;15.86;nan;-24259.25;5013040;28;20187;-78
2023/03/21 08:41:34;;;;;;;14.30;6.50;;;;;;;16.20;nan;-24268.63;5012890;28;20183;-76
2023/03/21 08:44:00;;;;;;;13.73;7.18;;;;;;;16.11;nan;-24266.25;5012485;28;20537;-81
2023/03/21 08:46:25;;;;;;;17.30;7.47;;;;;;;16.10;nan;-24265.81;5013671;28;20179;-74
2023/03/21 08:48:51;;;;;;;18.55;7.78;;;;;;;15.90;nan;-24260.50;5016454;28;20172;-75
2023/03/21 08:51:17;;;;;;;14.70;7.57;;;;;;;16.07;nan;-24265.13;5015453;28;20663;-79
2023/03/21 08:53:42;;;;;;;15.48;7.15;;;;;;;15.97;nan;-24262.19;5014850;28;20172;-77
2023/03/21 08:56:09;;;;;;;11.82;7.15;;;;;;;16.17;nan;-24267.78;5014460;28;20544;-74
2023/03/21 08:58:35;;;;;;;13.18;7.18;;;;;;;15.96;nan;-24261.91;5014091;28;20675;-74
2023/03/21 09:01:01;;;;;;;16.88;7.18;;;;;;;15.82;nan;-24258.28;5014161;28;20222;-80
2023/03/21 09:03:26;;;;;;;16.15;8.00;;;;;;;15.96;nan;-24262.06;5015777;28;20663;-79
2023/03/21 09:05:53;;;;;;;15.30;7.32;;;;;;;16.28;nan;-24270.84;5046419;28;20693;-77
2023/03/21 09:08:22;;;;;;;13.82;7.22;;;;;;;16.54;nan;-24278.00;5010767;28;20203;-74
2023/03/21 09:10:56;;;;;;;14.20;6.47;;;;;;;16.09;nan;-24265.69;5012054;28;20266;-76
2023/03/21 09:13:23;;;;;;;14.32;7.28;;;;;;;15.94;nan;-24261.34;5012922;28;20253;-77
2023/03/21 09:15:49;;;;;;;14.90;7.18;;;;;;;16.23;nan;-24269.59;5014967;28;20200;-77
2023/03/21 09:18:16;;;;;;;12.48;6.97;;;;;;;16.45;nan;-24275.63;5014530;28;20188;-77
2023/03/21 09:20:43;;;;;;;18.02;7.93;;;;;;;16.52;nan;-24277.44;5013352;28;20192;-77
2023/03/21 09:23:10;;;;;;;14.57;7.03;;;;;;;16.69;nan;-24282.19;5013128;28;20270;-75
2023/03/21 09:25:37;;;;;;;14.80;7.07;;;;;;;16.69;nan;-24282.31;5014477;28;20233;-75
2023/03/21 09:28:04;;;;;;;13.13;6.95;;;;;;;17.10;nan;-24293.63;5029616;28;20201;-74
2023/03/21 09:30:34;;;;;;;16.20;6.72;;;;;;;16.94;nan;-24289.03;5013381;28;20777;-76
2023/03/21 09:33:02;;;;;;;15.10;7.40;;;;;;;17.09;nan;-24293.22;5013160;28;20690;-77
2023/03/21 09:35:28;;;;;;;16.52;7.57;;;;;;;16.96;nan;-24289.72;5014079;28;20206;-75
2023/03/21 09:37:56;;;;;;;18.33;7.82;;;;;;;16.62;nan;-24280.38;5014233;28;20251;-79
2023/03/21 09:41:03;;;;;;;13.60;7.25;;;;;;;17.11;nan;-24293.78;5013878;28;20260;-72
2023/03/21 09:43:49;;;;;;;14.23;7.60;;;;;;;16.75;nan;-24284.00;5018566;28;20188;-77
2023/03/21 09:46:20;;;;;;;13.13;7.40;;;;;;;16.90;nan;-24288.06;5029015;28;20666;-75
2023/03/21 09:48:56;;;;;;;19.25;8.13;;;;;;;16.83;nan;-24286.09;5013616;28;20211;-76
2023/03/21 09:51:27;;;;;;;15.77;7.30;;;;;;;17.09;nan;-24293.22;5014058;28;20179;-77
2023/03/21 09:53:55;;;;;;;19.45;7.38;;;;;;;17.04;nan;-24291.81;5014109;28;20163;-79
2023/03/21 09:56:21;;;;;;;16.63;7.72;;;;;;;17.31;nan;-24299.22;5012907;28;20203;-77
2023/03/21 09:58:54;;;;;;;18.75;8.07;;;;;;;17.44;nan;-24303.00;5011272;28;20318;-78
2023/03/21 10:01:28;;;;;;;14.57;7.43;;;;;;;17.25;nan;-24297.69;5013689;28;20191;-74
2023/03/21 10:03:59;;;;;;;17.05;8.10;;;;;;;16.66;nan;-24281.34;5014497;28;20207;-77
2023/03/21 10:06:28;;;;;;;19.13;7.90;;;;;;;16.01;nan;-24263.31;5013544;28;20181;-78
2023/03/21 10:09:05;;;;;;;17.08;7.82;;;;;;;16.79;nan;-24285.13;5029196;28;20176;-76
2023/03/21 10:11:39;;;;;;;16.88;7.70;;;;;;;16.86;nan;-24286.78;5013098;28;20170;-78
2023/03/21 10:14:30;;;;;;;23.13;8.48;;;;;;;17.01;nan;-24291.00;5012141;28;20192;-77
2023/03/21 10:17:20;;;;;;;16.20;7.63;;;;;;;17.16;nan;-24295.16;5013188;28;20184;-75
2023/03/21 10:19:48;;;;;;;16.88;8.48;;;;;;;17.65;nan;-24308.84;5028515;28;20178;-75
2023/03/21 10:22:14;;;;;;;16.55;6.90;;;;;;;17.61;nan;-24307.75;5011815;28;20183;-77
2023/03/21 10:24:40;;;;;;;21.23;7.22;;;;;;;17.33;nan;-24299.78;5027638;28;20192;-76
2023/03/21 10:27:05;;;;;;;18.67;8.48;;;;;;;17.46;nan;-24303.41;5013236;28;20253;-78
2023/03/21 10:29:40;;;;;;;14.80;7.75;;;;;;;17.25;nan;-24297.69;5013028;28;20573;-78
2023/03/21 10:32:12;;;;;;;17.88;7.85;;;;;;;17.28;nan;-24298.38;5013351;28;20233;-77
2023/03/21 10:34:43;;;;;;;16.35;7.65;;;;;;;17.20;nan;-24296.44;5012775;28;20279;-78
2023/03/21 10:37:11;;;;;;;18.88;7.75;;;;;;;17.07;nan;-24292.81;5027426;28;20183;-76
2023/03/21 10:39:39;;;;;;;18.50;7.93;;;;;;;16.93;nan;-24288.75;5013041;28;20172;-77
2023/03/21 10:42:05;;;;;;;18.38;8.50;;;;;;;17.37;nan;-24300.91;5012835;28;20183;-77
2023/03/21 10:44:33;;;;;;;16.60;8.10;;;;;;;18.06;nan;-24320.16;5011093;28;20183;-78
2023/03/21 10:47:07;;;;;;;19.75;7.95;;;;;;;17.96;nan;-24317.22;5011206;28;20172;-75
2023/03/21 10:49:35;;;;;;;14.57;7.38;;;;;;;17.98;nan;-24317.91;5010705;28;20227;-77
2023/03/21 10:52:08;;;;;;;18.77;7.43;;;;;;;18.47;nan;-24331.44;5011035;28;20704;-76
2023/03/21 10:54:37;;;;;;;16.35;7.75;;;;;;;18.46;nan;-24331.16;4990601;28;20273;-74
2023/03/21 10:57:10;;;;;;;18.30;7.18;;;;;;;18.07;nan;-24320.28;4992769;28;20255;-76
2023/03/21 10:59:43;;;;;;;16.60;7.72;;;;;;;17.71;nan;-24310.25;4991197;28;20176;-75
2023/03/21 11:02:30;;;;;;;15.57;7.50;;;;;;;17.66;nan;-24309.13;4993727;28;20169;-79
2023/03/21 11:04:57;;;;;;;19.77;7.53;;;;;;;17.84;nan;-24313.88;4992825;28;20230;-75
2023/03/21 11:07:29;;;;;;;13.52;7.00;;;;;;;17.86;nan;-24314.56;5007607;28;20184;-77
2023/03/21 11:09:58;;;;;;;11.85;6.18;;;;;;;18.44;nan;-24330.59;4992490;28;20193;-80
2023/03/21 11:12:39;;;;;;;10.88;6.38;;;;;;;18.82;nan;-24341.03;4992468;28;20196;-75
2023/03/21 11:15:26;;;;;;;11.48;6.35;;;;;;;19.32;nan;-24354.81;4992432;28;20207;-75
2023/03/21 11:17:52;;;;;;;18.45;6.57;;;;;;;19.21;nan;-24351.75;4992078;28;20663;-73
2023/03/21 11:20:19;;;;;;;14.95;7.03;;;;;;;18.41;nan;-24329.75;4992264;28;20257;-77
2023/03/21 11:22:45;;;;;;;13.70;7.03;;;;;;;18.46;nan;-24331.16;4992366;28;20177;-78
2023/03/21 11:25:36;;;;;;;15.70;6.90;;;;;;;18.73;nan;-24338.53;4990674;28;20195;-73
2023/03/21 11:28:08;;;;;;;11.98;6.32;;;;;;;18.82;nan;-24340.91;5008532;28;20183;-81
2023/03/21 11:30:33;;;;;;;17.85;7.38;;;;;;;19.30;nan;-24354.28;5027681;28;20230;-77
2023/03/21 11:33:05;;;;;;;13.73;7.00;;;;;;;19.50;nan;-24359.56;5012604;28;20179;-73
2023/03/21 11:35:34;;;;;;;13.48;6.03;;;;;;;20.02;nan;-24373.88;5012077;28;20655;-76
2023/03/21 11:38:00;;;;;;;18.00;7.57;;;;;;;19.55;nan;-24360.94;5011886;28;20238;-77
2023/03/21 11:40:34;;;;;;;13.95;6.53;;;;;;;18.82;nan;-24341.03;5011793;28;20180;-74
2023/03/21 11:43:23;;;;;;;14.75;6.60;;;;;;;18.75;nan;-24338.97;5026617;28;20176;-74
2023/03/21 11:46:04;;;;;;;14.75;6.18;;;;;;;18.83;nan;-24341.31;5010015;28;20179;-78